Time;durP1;ratioP1;P1;durP2;ratioP2;P2;SDS_P1;SDS_P2;PMS_P1;PMS_P2;Temp;Humidity;BMP_temperature;BMP_pressure;BME280_temperature;BME280_humidity;BME280_pressure;Samples;Min_cycle;Max_cycle;Signal;HPM_P1;HPM_P2
2022/02/13 00:00:06;;;;;;;23.98;8.82;;;;;;;-1.58;90.94;99830.38;5024122;28;20026;-58
2022/02/13 00:02:32;;;;;;;24.73;9.48;;;;;;;-1.62;88.76;99832.47;5012945;28;20090;-59
2022/02/13 00:04:58;;;;;;;20.58;8.45;;;;;;;-1.71;89.63;99822.03;5011253;28;20053;-59
2022/02/13 00:07:23;;;;;;;22.15;8.32;;;;;;;-1.85;89.57;99823.34;5017925;28;20048;-59
2022/02/13 00:09:49;;;;;;;16.65;8.13;;;;;;;-2.01;90.01;99827.44;5012546;28;20029;-60
2022/02/13 00:12:14;;;;;;;22.15;8.60;;;;;;;-2.15;90.77;99825.31;5012403;28;20049;-60
2022/02/13 00:14:40;;;;;;;25.17;9.15;;;;;;;-2.16;91.92;99831.53;5013215;28;20050;-59
2022/02/13 00:17:05;;;;;;;20.65;8.50;;;;;;;-2.38;91.28;99836.19;5011209;28;20526;-59
2022/02/13 00:19:30;;;;;;;19.60;9.05;;;;;;;-2.15;91.98;99829.75;5011653;28;20029;-59
2022/02/13 00:21:56;;;;;;;24.80;10.23;;;;;;;-2.02;91.16;99820.56;5019926;28;20385;-59
2022/02/13 00:24:21;;;;;;;29.60;9.45;;;;;;;-2.09;90.28;99823.91;5013015;28;20528;-59
2022/02/13 00:26:47;;;;;;;21.98;9.60;;;;;;;-2.10;90.14;99812.56;5011556;28;20486;-59
2022/02/13 00:29:12;;;;;;;22.70;9.27;;;;;;;-2.13;90.39;99818.13;5024442;28;20345;-59
2022/02/13 00:31:37;;;;;;;19.30;8.45;;;;;;;-2.12;90.40;99809.28;5015622;28;20056;-59
2022/02/13 00:34:03;;;;;;;21.92;8.07;;;;;;;-2.14;90.06;99816.47;5022531;28;20483;-59
2022/02/13 00:36:31;;;;;;;19.02;7.82;;;;;;;-2.38;90.95;99802.06;5011460;28;20049;-59
2022/02/13 00:38:56;;;;;;;22.33;8.68;;;;;;;-2.39;91.25;99807.47;5011936;28;20041;-59
2022/02/13 00:41:22;;;;;;;23.23;9.63;;;;;;;-2.24;91.76;99805.19;5011324;28;20038;-59
2022/02/13 00:43:47;;;;;;;34.65;12.18;;;;;;;-2.26;91.23;99801.88;5010986;28;20041;-59
2022/02/13 00:46:13;;;;;;;28.27;12.32;;;;;;;-2.27;90.91;99794.97;5018165;28;20047;-60
2022/02/13 00:48:38;;;;;;;32.17;12.10;;;;;;;-2.36;90.29;99783.53;5021029;28;20041;-60
2022/02/13 00:51:04;;;;;;;23.33;9.02;;;;;;;-2.17;90.10;99785.25;5012839;28;20073;-59
2022/02/13 00:53:29;;;;;;;22.35;8.25;;;;;;;-1.99;88.95;99782.66;5015442;28;20115;-59
2022/02/13 00:55:55;;;;;;;22.42;8.52;;;;;;;-2.05;88.58;99783.22;5009619;28;20045;-59
2022/02/13 00:58:20;;;;;;;14.25;7.43;;;;;;;-2.01;88.74;99780.16;5016417;28;20026;-59
2022/02/13 01:00:45;;;;;;;17.33;7.72;;;;;;;-2.02;88.25;99781.16;5020313;28;20045;-60
2022/02/13 01:03:11;;;;;;;22.88;8.15;;;;;;;-2.09;87.63;99774.84;5009092;28;20041;-59
2022/02/13 01:05:36;;;;;;;18.30;7.85;;;;;;;-1.93;87.67;99778.59;5019593;28;20087;-59
2022/02/13 01:08:02;;;;;;;21.20;7.07;;;;;;;-1.99;87.66;99772.97;5015162;28;20267;-59
2022/02/13 01:10:28;;;;;;;25.55;8.07;;;;;;;-1.94;88.67;99779.59;5011453;28;20125;-59
2022/02/13 01:12:54;;;;;;;18.17;7.82;;;;;;;-1.93;87.31;99773.34;5011116;28;20073;-59
2022/02/13 01:15:21;;;;;;;19.38;7.53;;;;;;;-1.76;86.65;99767.28;5012065;28;20034;-59
2022/02/13 01:17:46;;;;;;;14.52;6.97;;;;;;;-1.61;85.48;99771.03;5009701;28;20072;-59
2022/02/13 01:20:13;;;;;;;16.75;7.57;;;;;;;-1.81;86.05;99769.53;5011292;28;20476;-59
2022/02/13 01:22:38;;;;;;;17.17;7.18;;;;;;;-1.74;86.68;99775.84;5012249;28;20038;-59
2022/02/13 01:25:05;;;;;;;17.67;6.93;;;;;;;-1.80;86.12;99779.06;5011233;28;20468;-59
2022/02/13 01:27:30;;;;;;;17.92;7.90;;;;;;;-1.92;87.00;99777.63;5011332;28;21527;-59
2022/02/13 01:29:56;;;;;;;16.52;7.40;;;;;;;-1.93;86.52;99781.22;5026212;28;20038;-59
2022/02/13 01:32:21;;;;;;;20.25;8.20;;;;;;;-2.03;86.97;99779.47;5014873;28;20038;-59
2022/02/13 01:34:46;;;;;;;24.40;9.18;;;;;;;-2.05;88.32;99773.53;5013292;28;20040;-60
2022/02/13 01:37:12;;;;;;;18.50;7.07;;;;;;;-2.15;87.48;99783.28;5010947;28;20050;-59
2022/02/13 01:39:38;;;;;;;24.10;8.27;;;;;;;-2.17;87.96;99780.00;5023696;28;20045;-59
2022/02/13 01:42:04;;;;;;;32.78;8.95;;;;;;;-2.17;87.61;99775.56;5011502;28;20042;-59
2022/02/13 01:44:33;;;;;;;26.00;8.63;;;;;;;-2.05;87.15;99763.03;5010709;28;20502;-60
2022/02/13 01:46:59;;;;;;;19.13;8.35;;;;;;;-2.20;87.68;99754.84;5010085;28;20037;-59
2022/02/13 01:49:24;;;;;;;18.67;7.80;;;;;;;-2.26;87.79;99749.38;5015247;28;20770;-59
2022/02/13 01:51:50;;;;;;;21.50;8.70;;;;;;;-2.27;87.86;99739.81;5010863;28;20046;-59
2022/02/13 01:54:15;;;;;;;19.50;8.70;;;;;;;-2.33;87.87;99737.78;4998515;28;20049;-60
2022/02/13 01:56:41;;;;;;;23.10;8.02;;;;;;;-2.24;87.99;99736.91;5009999;28;20049;-59
2022/02/13 01:59:06;;;;;;;14.88;7.30;;;;;;;-2.23;87.96;99743.81;5011745;28;20034;-59
2022/02/13 02:01:32;;;;;;;23.02;9.45;;;;;;;-2.32;88.25;99742.06;5009821;28;20042;-59
2022/02/13 02:03:57;;;;;;;16.30;7.30;;;;;;;-2.21;88.03;99744.50;5011465;28;20504;-59
2022/02/13 02:06:23;;;;;;;24.67;8.95;;;;;;;-2.33;88.30;99738.59;5009263;28;20107;-59
2022/02/13 02:08:48;;;;;;;23.98;8.70;;;;;;;-2.36;88.79;99738.91;5010609;28;20057;-59
2022/02/13 02:11:13;;;;;;;25.98;8.73;;;;;;;-2.39;88.33;99734.78;5017421;28;20045;-59
2022/02/13 02:13:39;;;;;;;15.93;8.18;;;;;;;-2.46;89.16;99723.22;5010587;28;20049;-60
2022/02/13 02:16:04;;;;;;;18.05;8.10;;;;;;;-2.41;89.11;99720.97;5008973;28;20153;-59
2022/02/13 02:18:30;;;;;;;21.23;7.30;;;;;;;-2.29;88.44;99707.66;5010227;28;20108;-59
2022/02/13 02:21:02;;;;;;;19.52;7.95;;;;;;;-2.31;88.53;99713.03;5009783;28;20042;-59
2022/02/13 02:23:28;;;;;;;19.05;8.88;;;;;;;-2.47;89.19;99711.06;5014340;28;20033;-59
2022/02/13 02:25:53;;;;;;;23.98;8.85;;;;;;;-2.56;89.88;99716.38;5009790;28;20056;-59
2022/02/13 02:28:19;;;;;;;23.52;7.93;;;;;;;-2.53;90.50;99709.00;5010033;28;20037;-59
2022/02/13 02:30:44;;;;;;;23.98;8.07;;;;;;;-2.64;89.87;99715.28;5015905;28;20149;-59
2022/02/13 02:33:11;;;;;;;18.35;7.88;;;;;;;-2.61;90.97;99716.78;5007206;28;20030;-59
2022/02/13 02:35:37;;;;;;;28.20;8.75;;;;;;;-2.66;90.80;99711.16;5011512;28;20037;-59
2022/02/13 02:38:03;;;;;;;22.00;9.00;;;;;;;-2.72;90.32;99709.94;5016831;28;20096;-59
2022/02/13 02:40:28;;;;;;;24.55;8.70;;;;;;;-2.75;90.61;99704.16;5010916;28;20130;-59
2022/02/13 02:42:54;;;;;;;17.83;8.10;;;;;;;-2.77;90.41;99699.06;5017312;28;20050;-59
2022/02/13 02:45:19;;;;;;;21.02;8.70;;;;;;;-2.69;91.49;99706.22;5012995;28;20964;-59
2022/02/13 02:47:44;;;;;;;25.50;9.77;;;;;;;-2.83;90.38;99694.38;5015371;28;20039;-59
2022/02/13 02:50:11;;;;;;;22.48;8.95;;;;;;;-2.76;91.33;99699.88;5011285;28;20056;-59
2022/02/13 02:52:36;;;;;;;20.20;8.93;;;;;;;-2.79;90.10;99694.94;5015872;28;20048;-59
2022/02/13 02:55:02;;;;;;;15.02;8.70;;;;;;;-2.71;91.92;99687.97;5016024;28;20520;-59
2022/02/13 02:57:27;;;;;;;17.48;8.95;;;;;;;-2.66;90.46;99684.91;5009896;28;20135;-59
2022/02/13 02:59:52;;;;;;;18.13;8.13;;;;;;;-2.62;89.57;99670.53;5008621;28;20513;-59
2022/02/13 03:02:18;;;;;;;20.70;8.88;;;;;;;-2.67;88.99;99659.63;5013836;28;20041;-60
2022/02/13 03:04:43;;;;;;;18.67;8.68;;;;;;;-2.60;89.27;99668.56;5024900;28;20029;-59
2022/02/13 03:07:09;;;;;;;19.10;8.73;;;;;;;-2.53;88.98;99653.06;5009387;28;20558;-59
2022/02/13 03:09:35;;;;;;;16.73;8.07;;;;;;;-2.69;90.12;99658.97;5009751;28;20105;-59
2022/02/13 03:12:00;;;;;;;25.63;8.85;;;;;;;-2.78;89.53;99654.59;5009425;28;20042;-59
2022/02/13 03:14:26;;;;;;;22.42;8.43;;;;;;;-2.63;89.42;99653.94;5014731;28;20527;-59
2022/02/13 03:16:52;;;;;;;18.25;7.50;;;;;;;-2.62;89.69;99660.03;5006150;28;20034;-59
2022/02/13 03:19:17;;;;;;;23.95;8.23;;;;;;;-2.61;89.03;99653.81;5014389;28;20069;-59
2022/02/13 03:21:43;;;;;;;19.83;8.57;;;;;;;-2.68;89.14;99653.56;5011941;28;20046;-59
2022/02/13 03:24:09;;;;;;;30.13;8.48;;;;;;;-2.66;89.70;99653.44;5008881;28;20137;-60
2022/02/13 03:26:35;;;;;;;15.77;8.10;;;;;;;-2.61;90.33;99644.13;5009597;28;20049;-59
2022/02/13 03:29:00;;;;;;;21.40;8.73;;;;;;;-2.68;90.12;99643.06;5009318;28;20026;-59
2022/02/13 03:31:26;;;;;;;21.88;8.63;;;;;;;-2.68;90.05;99652.75;5008607;28;20045;-59
2022/02/13 03:33:51;;;;;;;21.08;8.40;;;;;;;-2.72;90.16;99656.63;5010293;28;20080;-59
2022/02/13 03:36:18;;;;;;;21.08;8.63;;;;;;;-2.77;90.66;99651.00;5021486;28;20049;-59
2022/02/13 03:38:44;;;;;;;22.25;8.55;;;;;;;-2.70;90.75;99652.88;5009034;28;20044;-59
2022/02/13 03:41:09;;;;;;;21.95;8.98;;;;;;;-2.64;90.01;99649.69;5011658;28;20408;-59
2022/02/13 03:43:35;;;;;;;22.25;8.00;;;;;;;-2.61;90.38;99649.38;5008246;28;20084;-59
2022/02/13 03:46:00;;;;;;;22.10;8.82;;;;;;;-2.72;90.25;99640.88;5008355;28;20096;-59
2022/02/13 03:48:25;;;;;;;20.65;8.35;;;;;;;-2.70;90.57;99646.81;5005034;28;20026;-59
2022/02/13 03:50:51;;;;;;;25.25;8.75;;;;;;;-2.72;90.61;99638.25;5008852;28;20083;-59
2022/02/13 03:53:16;;;;;;;20.10;7.75;;;;;;;-2.72;89.89;99635.63;5009474;28;20040;-60
2022/02/13 03:55:42;;;;;;;20.83;9.18;;;;;;;-2.75;90.68;99636.75;5007574;28;20049;-59
2022/02/13 03:58:07;;;;;;;21.25;8.32;;;;;;;-2.75;91.08;99639.38;5009471;28;20139;-59
2022/02/13 04:00:33;;;;;;;23.42;9.35;;;;;;;-2.81;90.73;99629.47;5013954;28;20042;-59
2022/02/13 04:02:58;;;;;;;23.15;8.90;;;;;;;-2.79;89.92;99637.22;5007757;28;20029;-59
2022/02/13 04:05:24;;;;;;;20.05;8.73;;;;;;;-2.84;90.23;99624.53;5020878;28;20636;-59
2022/02/13 04:07:49;;;;;;;19.67;8.70;;;;;;;-2.89;89.47;99632.84;5008502;28;20025;-59
2022/02/13 04:10:14;;;;;;;18.75;8.38;;;;;;;-2.87;91.00;99630.91;5020741;28;20037;-60
2022/02/13 04:12:41;;;;;;;21.10;7.78;;;;;;;-3.05;89.85;99632.63;5014914;28;20022;-59
2022/02/13 04:15:07;;;;;;;22.40;7.82;;;;;;;-3.14;90.70;99612.53;5008173;28;20041;-58
2022/02/13 04:17:32;;;;;;;26.65;9.02;;;;;;;-3.07;92.18;99618.81;5008234;28;20029;-59
2022/02/13 04:19:58;;;;;;;18.17;8.63;;;;;;;-2.89;95.20;99632.03;5022057;28;20034;-60
2022/02/13 04:22:23;;;;;;;27.65;8.90;;;;;;;-3.19;91.17;99626.06;5007968;28;20111;-59
2022/02/13 04:24:48;;;;;;;19.10;7.25;;;;;;;-3.40;93.25;99626.28;5007587;28;20029;-59
2022/02/13 04:27:14;;;;;;;24.58;8.48;;;;;;;-3.30;94.36;99634.94;5007097;28;20045;-57
2022/02/13 04:29:39;;;;;;;21.85;9.23;;;;;;;-3.28;93.20;99624.31;5009330;28;20033;-59
2022/02/13 04:32:05;;;;;;;16.52;8.07;;;;;;;-3.43;91.16;99618.69;5008497;28;20585;-59
2022/02/13 04:34:31;;;;;;;27.45;8.48;;;;;;;-3.34;92.64;99615.22;5012471;28;20068;-59
2022/02/13 04:36:56;;;;;;;18.35;7.55;;;;;;;-3.34;91.54;99607.38;5017402;28;20054;-59
2022/02/13 04:39:22;;;;;;;15.43;8.10;;;;;;;-3.37;91.33;99612.06;5012429;28;20384;-59
2022/02/13 04:41:47;;;;;;;17.90;8.60;;;;;;;-3.26;91.92;99610.09;5011092;28;20966;-59
2022/02/13 04:44:13;;;;;;;20.13;8.18;;;;;;;-3.14;91.88;99615.97;5021507;28;20077;-59
2022/02/13 04:46:38;;;;;;;17.50;8.00;;;;;;;-3.19;91.68;99610.34;5010583;28;20042;-59
2022/02/13 04:49:04;;;;;;;24.80;8.43;;;;;;;-3.20;92.20;99613.09;5014910;28;20428;-59
2022/02/13 04:51:29;;;;;;;15.02;8.00;;;;;;;-3.14;92.00;99608.13;5011719;28;20093;-59
2022/02/13 04:53:54;;;;;;;22.05;8.38;;;;;;;-3.23;91.18;99602.91;5009631;28;20058;-60
2022/02/13 04:56:20;;;;;;;19.77;9.15;;;;;;;-3.25;91.38;99600.41;5026426;28;20065;-59
2022/02/13 04:58:45;;;;;;;39.95;12.00;;;;;;;-3.35;91.35;99604.88;5012340;28;20109;-58
2022/02/13 05:01:11;;;;;;;27.88;10.07;;;;;;;-3.41;91.79;99601.03;5010505;28;20690;-58
2022/02/13 05:03:36;;;;;;;21.95;8.93;;;;;;;-3.38;92.25;99600.75;5011606;28;20396;-58
2022/02/13 05:06:02;;;;;;;23.50;9.02;;;;;;;-3.20;91.73;99590.31;5011233;28;20439;-58
2022/02/13 05:08:27;;;;;;;21.30;9.60;;;;;;;-3.12;92.85;99585.19;5021240;28;20045;-58
2022/02/13 05:10:52;;;;;;;25.52;11.40;;;;;;;-3.13;91.17;99577.47;5012898;28;20062;-57
2022/02/13 05:13:18;;;;;;;25.55;10.23;;;;;;;-3.17;91.32;99565.59;5017230;28;20045;-58
2022/02/13 05:15:43;;;;;;;24.83;10.25;;;;;;;-3.18;91.44;99556.91;5011309;28;20115;-58
2022/02/13 05:18:09;;;;;;;26.20;10.70;;;;;;;-3.19;92.16;99555.28;5009743;28;20542;-58
2022/02/13 05:20:35;;;;;;;28.27;11.43;;;;;;;-3.23;91.11;99547.84;5010186;28;20041;-58
2022/02/13 05:23:01;;;;;;;19.88;7.32;;;;;;;-3.21;91.90;99532.81;5010922;28;20124;-58
2022/02/13 05:25:26;;;;;;;30.30;9.10;;;;;;;-3.20;91.99;99534.44;5010013;28;20483;-58
2022/02/13 05:27:52;;;;;;;27.55;9.80;;;;;;;-3.23;91.32;99527.69;5018240;28;20025;-57
2022/02/13 05:30:17;;;;;;;23.50;9.23;;;;;;;-3.32;91.19;99516.31;5011131;28;20045;-57
2022/02/13 05:32:43;;;;;;;26.40;9.60;;;;;;;-3.13;91.19;99511.91;5013768;28;20443;-57
2022/02/13 05:35:08;;;;;;;24.85;10.02;;;;;;;-3.17;91.66;99513.16;5010694;28;20503;-58
2022/02/13 05:37:34;;;;;;;19.58;8.13;;;;;;;-3.21;93.09;99522.31;5011052;28;20018;-58
2022/02/13 05:39:59;;;;;;;23.70;10.30;;;;;;;-3.19;93.13;99526.44;5023374;28;20038;-58
2022/02/13 05:42:25;;;;;;;26.23;10.57;;;;;;;-3.15;92.57;99516.47;5008618;28;20092;-58
2022/02/13 05:44:51;;;;;;;34.50;11.40;;;;;;;-3.18;91.39;99517.59;5010405;28;20038;-58
2022/02/13 05:47:16;;;;;;;19.60;8.38;;;;;;;-3.10;91.07;99515.06;5008670;28;20058;-58
2022/02/13 05:49:42;;;;;;;26.65;10.57;;;;;;;-3.18;91.60;99519.41;5010233;28;20041;-58
2022/02/13 05:52:07;;;;;;;20.27;9.05;;;;;;;-3.32;91.34;99510.22;5018049;28;20053;-58
2022/02/13 05:54:33;;;;;;;18.27;9.43;;;;;;;-3.30;92.31;99516.97;5014931;28;20115;-59
2022/02/13 05:56:58;;;;;;;30.58;10.80;;;;;;;-3.42;92.36;99515.53;5014724;28;20046;-58
2022/02/13 05:59:23;;;;;;;21.63;10.40;;;;;;;-3.34;94.12;99517.44;5011299;28;20037;-58
2022/02/13 06:01:49;;;;;;;25.60;9.77;;;;;;;-3.43;92.68;99519.09;5008200;28;20041;-58
2022/02/13 06:04:15;;;;;;;32.20;10.77;;;;;;;-3.36;93.61;99514.94;5015752;28;20120;-58
2022/02/13 06:06:41;;;;;;;24.92;9.98;;;;;;;-3.43;92.44;99518.28;5010289;28;20048;-58
2022/02/13 06:09:06;;;;;;;20.88;9.45;;;;;;;-3.33;92.55;99511.19;5015605;28;20379;-58
2022/02/13 06:11:32;;;;;;;20.92;9.63;;;;;;;-3.36;92.63;99514.94;5013659;28;20041;-58
2022/02/13 06:13:57;;;;;;;27.08;10.60;;;;;;;-3.50;92.31;99523.28;5010326;28;20033;-58
2022/02/13 06:16:22;;;;;;;24.13;10.57;;;;;;;-3.44;92.24;99522.72;5013385;28;20045;-58
2022/02/13 06:18:48;;;;;;;21.20;9.80;;;;;;;-3.42;91.49;99520.78;5009850;28;20443;-58
2022/02/13 06:21:13;;;;;;;21.70;8.75;;;;;;;-3.41;91.66;99519.78;5009512;28;20449;-58
2022/02/13 06:23:39;;;;;;;23.35;9.32;;;;;;;-3.39;91.65;99520.47;5010249;28;20435;-58
2022/02/13 06:26:04;;;;;;;38.30;15.13;;;;;;;-3.32;91.43;99521.56;5009831;28;20521;-58
2022/02/13 06:28:30;;;;;;;24.33;10.05;;;;;;;-3.32;91.49;99516.31;5010040;28;20084;-58
2022/02/13 06:30:56;;;;;;;23.02;9.30;;;;;;;-3.34;91.34;99512.19;5018541;28;20045;-59
2022/02/13 06:33:21;;;;;;;22.48;10.02;;;;;;;-3.19;90.52;99509.91;5021196;28;20105;-58
2022/02/13 06:35:47;;;;;;;20.65;9.95;;;;;;;-2.83;89.51;99498.44;5012840;28;20056;-59
2022/02/13 06:38:13;;;;;;;21.40;9.90;;;;;;;-2.88;88.57;99499.88;5009348;28;20392;-58
2022/02/13 06:40:38;;;;;;;14.68;8.43;;;;;;;-2.70;88.01;99510.38;5008912;28;20037;-58
2022/02/13 06:43:04;;;;;;;24.73;9.85;;;;;;;-2.60;88.41;99505.84;5010763;28;20026;-58
2022/02/13 06:45:29;;;;;;;29.00;10.85;;;;;;;-2.65;87.87;99500.25;5009839;28;20054;-59
2022/02/13 06:47:55;;;;;;;24.83;11.40;;;;;;;-2.64;87.61;99494.03;5012981;28;20034;-58
2022/02/13 06:50:20;;;;;;;20.08;9.07;;;;;;;-2.51;87.51;99491.84;5015486;28;20053;-58
2022/02/13 06:52:46;;;;;;;20.95;10.63;;;;;;;-2.45;86.65;99493.03;5021508;28;20090;-57
2022/02/13 06:55:11;;;;;;;21.77;9.40;;;;;;;-2.50;86.61;99490.84;5009121;28;20054;-60
2022/02/13 06:57:45;;;;;;;20.70;11.88;;;;;;;-2.64;87.06;99504.53;5014566;28;20384;-60
2022/02/13 07:00:12;;;;;;;28.63;9.80;;;;;;;-2.56;87.99;99499.34;5019674;28;20470;-60
2022/02/13 07:02:38;;;;;;;24.67;9.57;;;;;;;-2.63;87.17;99501.75;5019408;28;20071;-59
2022/02/13 07:05:03;;;;;;;19.02;8.85;;;;;;;-2.60;87.15;99503.22;5019515;28;20026;-59
2022/02/13 07:07:29;;;;;;;24.05;10.27;;;;;;;-2.53;87.92;99506.91;5018481;28;20143;-59
2022/02/13 07:09:54;;;;;;;23.35;10.82;;;;;;;-2.57;87.47;99504.72;5009888;28;20038;-58
2022/02/13 07:12:20;;;;;;;28.05;11.50;;;;;;;-2.66;87.66;99501.22;5011935;28;20064;-59
2022/02/13 07:14:46;;;;;;;25.42;10.18;;;;;;;-2.68;88.12;99495.31;5024232;28;20419;-58
2022/02/13 07:17:12;;;;;;;21.08;10.75;;;;;;;-2.71;87.66;99490.38;5006095;28;20045;-58
2022/02/13 07:19:37;;;;;;;17.10;8.73;;;;;;;-2.71;87.69;99487.75;5008351;28;20041;-59
2022/02/13 07:22:04;;;;;;;22.30;10.73;;;;;;;-2.66;87.18;99488.94;5009145;28;20097;-59
2022/02/13 07:24:29;;;;;;;23.13;10.55;;;;;;;-2.64;87.41;99499.28;5008098;28;20120;-59
2022/02/13 07:26:55;;;;;;;22.38;9.73;;;;;;;-2.52;87.21;99491.97;5007516;28;20046;-59
2022/02/13 07:29:20;;;;;;;23.30;10.35;;;;;;;-1.86;85.74;99509.03;5009356;28;20025;-59
2022/02/13 07:31:46;;;;;;;16.30;8.65;;;;;;;-0.79;79.77;99504.97;5014523;28;20693;-59
2022/02/13 07:34:11;;;;;;;21.92;9.35;;;;;;;-0.76;78.79;99500.19;5016970;28;20036;-59
2022/02/13 07:36:37;;;;;;;20.08;8.60;;;;;;;-0.29;76.23;99490.84;5008961;28;20069;-59
2022/02/13 07:39:03;;;;;;;22.00;10.32;;;;;;;0.45;73.30;99486.25;5013191;28;20434;-58
2022/02/13 07:41:28;;;;;;;24.00;9.20;;;;;;;0.52;72.78;99483.72;5010336;28;20141;-59
2022/02/13 07:43:54;;;;;;;23.85;11.10;;;;;;;1.13;70.64;99481.28;5009316;28;20053;-59
2022/02/13 07:46:20;;;;;;;19.85;10.32;;;;;;;0.81;70.79;99480.47;5010591;28;20053;-59
2022/02/13 07:48:45;;;;;;;19.35;8.30;;;;;;;0.32;72.48;99472.75;5019949;28;20978;-59
2022/02/13 07:51:11;;;;;;;26.90;9.25;;;;;;;0.06;73.11;99471.19;5013092;28;20049;-59
2022/02/13 07:53:37;;;;;;;18.27;8.35;;;;;;;0.36;73.64;99461.69;5008849;28;20472;-58
2022/02/13 07:56:03;;;;;;;22.58;10.10;;;;;;;1.07;71.59;99466.94;5010030;28;20038;-58
2022/02/13 07:58:32;;;;;;;27.67;12.40;;;;;;;1.92;68.51;99469.38;5013319;28;20028;-59
2022/02/13 08:01:00;;;;;;;17.10;10.43;;;;;;;2.42;68.21;99474.97;5017142;28;20068;-59
2022/02/13 08:03:26;;;;;;;23.60;10.82;;;;;;;2.32;67.57;99472.59;5005518;28;20134;-59
2022/02/13 08:05:51;;;;;;;24.17;10.70;;;;;;;1.62;67.51;99472.97;5016792;28;20388;-59
2022/02/13 08:08:17;;;;;;;24.58;10.75;;;;;;;2.27;66.88;99467.03;5015443;28;20040;-59
2022/02/13 08:10:42;;;;;;;20.83;10.18;;;;;;;2.58;65.34;99473.94;5015661;28;20460;-59
2022/02/13 08:13:08;;;;;;;23.20;11.90;;;;;;;2.80;64.58;99473.00;5015686;28;20052;-59
2022/02/13 08:15:33;;;;;;;24.48;11.63;;;;;;;2.73;66.31;99469.44;5024468;28;20124;-59
2022/02/13 08:18:09;;;;;;;22.05;10.98;;;;;;;3.34;63.06;99457.63;5017303;28;20064;-59
2022/02/13 08:20:35;;;;;;;42.35;18.92;;;;;;;2.76;64.18;99458.47;5016850;28;20042;-59
2022/02/13 08:23:00;;;;;;;24.00;12.85;;;;;;;3.13;65.36;99469.06;5009993;28;20053;-59
2022/02/13 08:25:25;;;;;;;50.05;25.25;;;;;;;2.76;64.09;99461.13;5017604;28;20054;-59
2022/02/13 08:27:51;;;;;;;25.23;10.88;;;;;;;2.82;62.81;99456.91;5013128;28;20057;-59
2022/02/13 08:30:17;;;;;;;21.23;10.85;;;;;;;3.08;64.42;99458.22;5020851;28;20049;-59
2022/02/13 08:32:42;;;;;;;25.38;10.88;;;;;;;3.10;63.05;99456.22;5020284;28;20048;-59
2022/02/13 08:35:08;;;;;;;21.85;11.57;;;;;;;2.74;64.05;99449.91;5017020;28;20049;-59
2022/02/13 08:37:33;;;;;;;26.30;13.02;;;;;;;3.36;63.42;99448.50;5018449;28;20033;-59
2022/02/13 08:39:59;;;;;;;21.38;11.23;;;;;;;3.89;61.40;99450.75;5023438;28;20524;-59
2022/02/13 08:42:24;;;;;;;24.13;10.68;;;;;;;3.92;60.44;99441.56;5019727;28;20092;-59
2022/02/13 08:44:49;;;;;;;21.27;10.25;;;;;;;3.13;63.46;99448.69;5019155;28;20033;-58
2022/02/13 08:47:15;;;;;;;20.13;10.43;;;;;;;3.36;61.51;99439.72;5016206;28;20396;-58
2022/02/13 08:49:41;;;;;;;21.58;10.25;;;;;;;2.73;65.40;99445.63;5009165;28;20030;-58
2022/02/13 08:52:08;;;;;;;24.63;10.93;;;;;;;3.42;62.76;99445.09;5010207;28;20428;-58
2022/02/13 08:54:33;;;;;;;20.50;10.00;;;;;;;3.53;62.33;99435.81;5033180;28;20173;-58
2022/02/13 08:56:58;;;;;;;22.60;9.40;;;;;;;3.37;61.99;99444.00;5010253;28;20094;-58
2022/02/13 08:59:24;;;;;;;18.98;10.60;;;;;;;3.29;62.07;99444.16;5012043;28;20624;-59
2022/02/13 09:01:49;;;;;;;21.50;9.80;;;;;;;2.25;65.97;99442.59;5009939;28;20092;-58
2022/02/13 09:04:15;;;;;;;18.88;9.93;;;;;;;3.27;64.93;99436.41;5011159;28;20109;-60
2022/02/13 09:06:41;;;;;;;21.08;9.82;;;;;;;3.94;62.40;99435.06;5012216;28;20049;-59
2022/02/13 09:09:08;;;;;;;21.25;9.48;;;;;;;3.67;61.41;99432.25;5019989;28;20042;-62
2022/02/13 09:11:33;;;;;;;20.30;9.43;;;;;;;4.36;59.77;99435.91;5014931;28;20042;-55
2022/02/13 09:14:00;;;;;;;24.92;8.68;;;;;;;3.70;60.67;99431.03;5012286;28;20033;-55
2022/02/13 09:16:26;;;;;;;19.52;9.63;;;;;;;4.24;59.64;99434.84;5010928;28;20543;-55
2022/02/13 09:18:51;;;;;;;19.85;9.35;;;;;;;4.18;59.25;99423.19;5016751;28;20021;-56
2022/02/13 09:21:17;;;;;;;19.67;10.02;;;;;;;4.28;57.85;99423.63;5011069;28;20053;-54
2022/02/13 09:23:42;;;;;;;21.00;9.50;;;;;;;3.86;60.35;99424.63;5012619;28;20038;-51
2022/02/13 09:26:08;;;;;;;20.88;8.45;;;;;;;4.35;59.55;99429.00;5014504;28;20037;-54
2022/02/13 09:28:33;;;;;;;20.70;9.43;;;;;;;4.42;58.78;99419.22;5015100;28;20949;-54
2022/02/13 09:30:58;;;;;;;19.75;8.63;;;;;;;4.54;58.22;99416.78;5011268;28;20042;-53
2022/02/13 09:33:24;;;;;;;13.55;7.50;;;;;;;3.70;59.48;99414.31;5009978;28;20030;-53
2022/02/13 09:35:49;;;;;;;21.10;10.07;;;;;;;4.64;58.55;99405.81;5010140;28;20484;-53
2022/02/13 09:38:15;;;;;;;21.98;9.75;;;;;;;3.85;59.54;99402.59;5011135;28;20523;-54
2022/02/13 09:40:44;;;;;;;21.05;9.95;;;;;;;3.57;60.66;99397.31;5010651;28;20120;-50
2022/02/13 09:43:10;;;;;;;23.90;9.90;;;;;;;4.07;59.02;99399.88;5011300;28;20076;-54
2022/02/13 09:45:40;;;;;;;24.60;9.57;;;;;;;3.51;60.20;99398.06;5009517;28;20038;-52
2022/02/13 09:48:05;;;;;;;20.80;9.77;;;;;;;4.39;57.94;99393.06;5014398;28;20044;-55
2022/02/13 09:50:31;;;;;;;16.33;8.38;;;;;;;3.68;59.25;99402.06;5010654;28;20050;-54
2022/02/13 09:52:57;;;;;;;20.23;9.77;;;;;;;3.83;59.90;99399.31;5010685;28;20046;-54
2022/02/13 09:55:25;;;;;;;23.83;10.05;;;;;;;3.89;62.36;99397.69;5010188;28;20517;-58
2022/02/13 09:57:59;;;;;;;16.38;8.80;;;;;;;3.53;61.32;99389.94;5029990;28;20030;-59
2022/02/13 10:00:27;;;;;;;19.60;9.27;;;;;;;3.79;60.77;99391.94;5014126;28;20052;-54
2022/02/13 10:02:53;;;;;;;19.80;8.45;;;;;;;3.97;60.67;99394.91;5012165;28;20089;-54
2022/02/13 10:05:21;;;;;;;22.15;9.57;;;;;;;4.57;60.69;99381.06;5018946;28;20048;-55
2022/02/13 10:07:52;;;;;;;23.55;10.50;;;;;;;4.54;60.99;99375.16;5023045;28;20094;-55
2022/02/13 10:10:17;;;;;;;24.85;9.80;;;;;;;6.01;56.79;99375.22;5008850;28;20033;-55
2022/02/13 10:12:44;;;;;;;26.98;11.05;;;;;;;5.10;59.32;99362.59;5010553;28;20025;-54
2022/02/13 10:15:21;;;;;;;19.67;8.85;;;;;;;4.08;63.69;99365.19;5009132;28;20042;-55
2022/02/13 10:18:03;;;;;;;19.42;9.80;;;;;;;4.73;62.82;99365.59;5015652;28;20030;-55
2022/02/13 10:20:37;;;;;;;29.00;10.38;;;;;;;4.53;63.53;99362.91;5009622;28;20128;-55
2022/02/13 10:23:06;;;;;;;23.73;10.38;;;;;;;4.61;63.68;99364.56;5010808;28;20033;-54
2022/02/13 10:25:31;;;;;;;28.70;11.70;;;;;;;4.73;63.45;99351.50;5009445;28;20073;-54
2022/02/13 10:27:57;;;;;;;23.45;10.57;;;;;;;4.35;65.25;99351.22;5009386;28;20045;-55
2022/02/13 10:30:38;;;;;;;22.70;11.35;;;;;;;5.60;62.03;99355.03;5009343;28;20365;-55
2022/02/13 10:33:13;;;;;;;31.45;11.70;;;;;;;5.17;62.79;99347.50;5009503;28;20033;-55
2022/02/13 10:35:39;;;;;;;24.17;11.25;;;;;;;4.41;65.90;99335.28;5009744;28;20095;-56
2022/02/13 10:38:04;;;;;;;22.75;10.57;;;;;;;5.21;64.43;99337.25;5012716;28;20034;-55
2022/02/13 10:40:31;;;;;;;19.33;10.13;;;;;;;5.27;63.26;99325.81;5016180;28;20041;-55
2022/02/13 10:43:03;;;;;;;23.50;10.82;;;;;;;4.47;67.62;99315.94;5014814;28;20080;-55
2022/02/13 10:45:30;;;;;;;26.70;12.15;;;;;;;5.03;66.46;99320.09;5012761;28;20464;-55
2022/02/13 10:47:58;;;;;;;24.80;10.68;;;;;;;6.18;63.18;99323.16;5015566;28;20056;-54
2022/02/13 10:50:24;;;;;;;26.90;12.27;;;;;;;6.65;62.55;99322.91;5014288;28;20686;-55
2022/02/13 10:52:56;;;;;;;24.38;11.25;;;;;;;5.39;64.76;99311.69;5015834;28;20049;-55
2022/02/13 10:55:22;;;;;;;30.58;12.75;;;;;;;5.18;67.17;99311.91;5023800;28;20073;-55
2022/02/13 10:57:47;;;;;;;26.80;12.40;;;;;;;6.28;64.11;99309.41;5008179;28;20029;-55
2022/02/13 11:00:16;;;;;;;25.75;11.75;;;;;;;5.99;64.93;99303.59;5021294;28;20032;-55
2022/02/13 11:02:44;;;;;;;33.13;13.27;;;;;;;6.22;63.83;99303.09;5009033;28;20025;-54
2022/02/13 11:05:10;;;;;;;29.38;12.60;;;;;;;6.52;65.11;99301.72;5010083;28;20088;-55
2022/02/13 11:07:40;;;;;;;23.35;11.90;;;;;;;5.91;64.69;99289.66;5009690;28;20391;-55
2022/02/13 11:10:34;;;;;;;23.23;11.00;;;;;;;5.72;65.73;99294.03;5015466;28;20021;-55
2022/02/13 11:13:00;;;;;;;27.23;11.98;;;;;;;5.70;67.89;99291.59;5010926;28;20050;-54
2022/02/13 11:15:30;;;;;;;30.40;12.90;;;;;;;5.91;66.39;99285.16;5014931;28;20076;-55
2022/02/13 11:17:58;;;;;;;26.50;12.13;;;;;;;6.40;65.09;99285.59;5013241;28;20029;-56